sensor_id;sensor_type;location;lat;lon;timestamp;P1;durP1;ratioP1;P2;durP2;ratioP2
17820;SDS011;9035;42.554;23.188;2022-10-19T00:01:46;3.37;;;1.70;;
17820;SDS011;9035;42.554;23.188;2022-10-19T00:04:12;1.97;;;1.60;;
17820;SDS011;9035;42.554;23.188;2022-10-19T00:06:39;1.97;;;1.67;;
17820;SDS011;9035;42.554;23.188;2022-10-19T00:09:08;1.93;;;1.77;;
17820;SDS011;9035;42.554;23.188;2022-10-19T00:11:37;1.97;;;1.63;;
17820;SDS011;9035;42.554;23.188;2022-10-19T00:14:05;2.00;;;1.57;;
17820;SDS011;9035;42.554;23.188;2022-10-19T00:16:34;3.87;;;1.60;;
17820;SDS011;9035;42.554;23.188;2022-10-19T00:19:04;2.23;;;1.67;;
17820;SDS011;9035;42.554;23.188;2022-10-19T00:21:33;1.97;;;1.40;;
17820;SDS011;9035;42.554;23.188;2022-10-19T00:24:01;3.27;;;1.63;;
17820;SDS011;9035;42.554;23.188;2022-10-19T00:26:30;2.77;;;1.60;;
17820;SDS011;9035;42.554;23.188;2022-10-19T00:28:57;3.57;;;1.90;;
17820;SDS011;9035;42.554;23.188;2022-10-19T00:31:24;3.30;;;1.80;;
17820;SDS011;9035;42.554;23.188;2022-10-19T00:33:51;2.93;;;1.40;;
17820;SDS011;9035;42.554;23.188;2022-10-19T00:36:19;2.30;;;1.40;;
17820;SDS011;9035;42.554;23.188;2022-10-19T00:38:49;3.80;;;1.50;;
17820;SDS011;9035;42.554;23.188;2022-10-19T00:41:17;1.57;;;1.40;;
17820;SDS011;9035;42.554;23.188;2022-10-19T00:43:50;3.70;;;1.70;;
17820;SDS011;9035;42.554;23.188;2022-10-19T00:46:19;4.43;;;1.50;;
17820;SDS011;9035;42.554;23.188;2022-10-19T00:48:46;1.50;;;1.40;;
17820;SDS011;9035;42.554;23.188;2022-10-19T00:51:13;2.90;;;1.60;;
17820;SDS011;9035;42.554;23.188;2022-10-19T00:53:40;2.97;;;1.40;;
17820;SDS011;9035;42.554;23.188;2022-10-19T00:56:08;1.57;;;1.30;;
17820;SDS011;9035;42.554;23.188;2022-10-19T00:58:39;4.23;;;1.70;;
17820;SDS011;9035;42.554;23.188;2022-10-19T01:01:09;2.43;;;1.73;;
17820;SDS011;9035;42.554;23.188;2022-10-19T01:03:41;1.73;;;1.57;;
17820;SDS011;9035;42.554;23.188;2022-10-19T01:06:08;4.23;;;1.70;;
17820;SDS011;9035;42.554;23.188;2022-10-19T01:08:36;3.03;;;1.50;;
17820;SDS011;9035;42.554;23.188;2022-10-19T01:11:08;2.03;;;1.40;;
17820;SDS011;9035;42.554;23.188;2022-10-19T01:13:44;4.17;;;1.40;;
17820;SDS011;9035;42.554;23.188;2022-10-19T01:16:21;3.43;;;1.20;;
17820;SDS011;9035;42.554;23.188;2022-10-19T01:18:56;2.10;;;1.60;;
17820;SDS011;9035;42.554;23.188;2022-10-19T01:21:29;3.30;;;1.90;;
17820;SDS011;9035;42.554;23.188;2022-10-19T01:30:06;1.63;;;1.50;;
17820;SDS011;9035;42.554;23.188;2022-10-19T01:32:47;2.63;;;1.70;;
17820;SDS011;9035;42.554;23.188;2022-10-19T01:35:22;1.27;;;1.17;;
17820;SDS011;9035;42.554;23.188;2022-10-19T01:37:55;1.97;;;1.37;;
17820;SDS011;9035;42.554;23.188;2022-10-19T01:40:33;2.93;;;1.50;;
17820;SDS011;9035;42.554;23.188;2022-10-19T01:43:08;2.07;;;1.47;;
17820;SDS011;9035;42.554;23.188;2022-10-19T01:45:41;1.53;;;1.20;;
17820;SDS011;9035;42.554;23.188;2022-10-19T01:48:13;4.30;;;1.73;;
17820;SDS011;9035;42.554;23.188;2022-10-19T01:50:43;2.47;;;1.20;;
17820;SDS011;9035;42.554;23.188;2022-10-19T01:53:14;3.27;;;1.30;;
17820;SDS011;9035;42.554;23.188;2022-10-19T01:55:46;1.63;;;1.43;;
17820;SDS011;9035;42.554;23.188;2022-10-19T01:58:16;1.53;;;1.30;;
17820;SDS011;9035;42.554;23.188;2022-10-19T02:00:49;1.60;;;1.50;;
17820;SDS011;9035;42.554;23.188;2022-10-19T02:03:19;5.17;;;1.30;;
17820;SDS011;9035;42.554;23.188;2022-10-19T02:05:47;2.17;;;1.30;;
17820;SDS011;9035;42.554;23.188;2022-10-19T02:08:19;2.27;;;1.13;;
17820;SDS011;9035;42.554;23.188;2022-10-19T02:10:50;3.17;;;1.37;;
17820;SDS011;9035;42.554;23.188;2022-10-19T02:13:18;1.47;;;1.30;;
17820;SDS011;9035;42.554;23.188;2022-10-19T02:15:49;1.60;;;1.50;;
17820;SDS011;9035;42.554;23.188;2022-10-19T02:18:18;1.77;;;1.13;;
17820;SDS011;9035;42.554;23.188;2022-10-19T02:20:50;1.60;;;1.50;;
17820;SDS011;9035;42.554;23.188;2022-10-19T02:23:18;1.93;;;1.20;;
17820;SDS011;9035;42.554;23.188;2022-10-19T02:25:47;2.10;;;1.30;;
17820;SDS011;9035;42.554;23.188;2022-10-19T02:28:14;1.27;;;1.10;;
17820;SDS011;9035;42.554;23.188;2022-10-19T02:30:41;1.97;;;1.50;;
17820;SDS011;9035;42.554;23.188;2022-10-19T02:33:09;1.87;;;1.20;;
17820;SDS011;9035;42.554;23.188;2022-10-19T02:35:37;1.90;;;1.33;;
17820;SDS011;9035;42.554;23.188;2022-10-19T02:38:05;2.67;;;1.80;;
17820;SDS011;9035;42.554;23.188;2022-10-19T02:40:36;1.73;;;1.27;;
17820;SDS011;9035;42.554;23.188;2022-10-19T02:43:06;2.20;;;1.40;;
17820;SDS011;9035;42.554;23.188;2022-10-19T02:45:39;2.63;;;1.40;;
17820;SDS011;9035;42.554;23.188;2022-10-19T02:48:16;2.00;;;1.40;;
17820;SDS011;9035;42.554;23.188;2022-10-19T02:50:46;1.43;;;1.13;;
17820;SDS011;9035;42.554;23.188;2022-10-19T02:53:13;2.03;;;1.33;;
17820;SDS011;9035;42.554;23.188;2022-10-19T02:55:40;1.70;;;1.33;;
17820;SDS011;9035;42.554;23.188;2022-10-19T02:58:07;1.73;;;1.20;;
17820;SDS011;9035;42.554;23.188;2022-10-19T03:00:34;2.47;;;1.30;;
17820;SDS011;9035;42.554;23.188;2022-10-19T03:03:01;3.40;;;1.60;;
17820;SDS011;9035;42.554;23.188;2022-10-19T03:05:29;1.70;;;1.40;;
17820;SDS011;9035;42.554;23.188;2022-10-19T03:07:56;2.97;;;1.27;;
17820;SDS011;9035;42.554;23.188;2022-10-19T03:10:23;4.13;;;1.83;;
17820;SDS011;9035;42.554;23.188;2022-10-19T03:12:50;1.67;;;1.20;;
17820;SDS011;9035;42.554;23.188;2022-10-19T03:15:17;3.93;;;1.40;;
17820;SDS011;9035;42.554;23.188;2022-10-19T03:17:44;2.73;;;1.50;;
17820;SDS011;9035;42.554;23.188;2022-10-19T03:20:11;2.83;;;1.10;;
17820;SDS011;9035;42.554;23.188;2022-10-19T03:22:39;2.73;;;1.47;;
17820;SDS011;9035;42.554;23.188;2022-10-19T03:25:06;1.90;;;1.53;;
17820;SDS011;9035;42.554;23.188;2022-10-19T03:27:34;2.90;;;1.27;;
17820;SDS011;9035;42.554;23.188;2022-10-19T03:30:00;3.70;;;1.40;;
17820;SDS011;9035;42.554;23.188;2022-10-19T03:32:27;1.90;;;1.50;;
17820;SDS011;9035;42.554;23.188;2022-10-19T03:34:54;1.70;;;1.30;;
17820;SDS011;9035;42.554;23.188;2022-10-19T03:37:20;1.80;;;1.57;;
17820;SDS011;9035;42.554;23.188;2022-10-19T03:39:49;2.20;;;1.40;;
17820;SDS011;9035;42.554;23.188;2022-10-19T03:42:15;1.80;;;1.40;;
17820;SDS011;9035;42.554;23.188;2022-10-19T03:44:42;1.80;;;1.40;;
17820;SDS011;9035;42.554;23.188;2022-10-19T03:47:09;1.63;;;1.50;;
17820;SDS011;9035;42.554;23.188;2022-10-19T03:49:36;1.83;;;1.50;;
17820;SDS011;9035;42.554;23.188;2022-10-19T03:52:03;1.73;;;1.47;;
17820;SDS011;9035;42.554;23.188;2022-10-19T03:54:29;1.83;;;1.43;;
17820;SDS011;9035;42.554;23.188;2022-10-19T03:56:57;1.83;;;1.13;;
17820;SDS011;9035;42.554;23.188;2022-10-19T03:59:24;4.47;;;1.30;;
17820;SDS011;9035;42.554;23.188;2022-10-19T04:01:51;2.30;;;1.20;;
17820;SDS011;9035;42.554;23.188;2022-10-19T04:04:18;3.13;;;1.33;;
17820;SDS011;9035;42.554;23.188;2022-10-19T04:06:46;1.40;;;1.30;;
17820;SDS011;9035;42.554;23.188;2022-10-19T04:09:14;4.17;;;1.63;;
17820;SDS011;9035;42.554;23.188;2022-10-19T04:11:43;2.70;;;1.50;;
17820;SDS011;9035;42.554;23.188;2022-10-19T04:14:11;2.67;;;1.60;;
17820;SDS011;9035;42.554;23.188;2022-10-19T04:16:39;2.00;;;1.50;;
17820;SDS011;9035;42.554;23.188;2022-10-19T04:19:06;2.27;;;1.40;;
17820;SDS011;9035;42.554;23.188;2022-10-19T04:21:35;3.23;;;1.67;;
17820;SDS011;9035;42.554;23.188;2022-10-19T04:24:05;1.80;;;1.30;;
17820;SDS011;9035;42.554;23.188;2022-10-19T04:26:33;1.63;;;1.30;;
17820;SDS011;9035;42.554;23.188;2022-10-19T04:29:03;3.40;;;1.37;;
17820;SDS011;9035;42.554;23.188;2022-10-19T04:31:31;1.23;;;1.13;;
17820;SDS011;9035;42.554;23.188;2022-10-19T04:33:58;1.70;;;1.40;;
17820;SDS011;9035;42.554;23.188;2022-10-19T04:36:25;3.97;;;1.37;;
17820;SDS011;9035;42.554;23.188;2022-10-19T04:38:52;3.83;;;1.80;;
17820;SDS011;9035;42.554;23.188;2022-10-19T04:41:20;2.37;;;1.27;;
17820;SDS011;9035;42.554;23.188;2022-10-19T04:43:47;1.50;;;1.37;;
17820;SDS011;9035;42.554;23.188;2022-10-19T04:46:20;2.10;;;1.30;;
17820;SDS011;9035;42.554;23.188;2022-10-19T04:48:49;1.80;;;1.37;;
17820;SDS011;9035;42.554;23.188;2022-10-19T04:51:16;1.30;;;1.20;;
17820;SDS011;9035;42.554;23.188;2022-10-19T04:53:44;1.27;;;1.00;;
17820;SDS011;9035;42.554;23.188;2022-10-19T04:56:12;2.70;;;1.30;;
17820;SDS011;9035;42.554;23.188;2022-10-19T04:58:40;1.63;;;1.10;;
17820;SDS011;9035;42.554;23.188;2022-10-19T05:01:07;1.40;;;1.30;;
17820;SDS011;9035;42.554;23.188;2022-10-19T05:03:35;1.43;;;1.20;;
17820;SDS011;9035;42.554;23.188;2022-10-19T05:06:04;1.37;;;1.10;;
17820;SDS011;9035;42.554;23.188;2022-10-19T05:08:31;1.73;;;1.20;;
17820;SDS011;9035;42.554;23.188;2022-10-19T05:11:01;1.83;;;1.30;;
17820;SDS011;9035;42.554;23.188;2022-10-19T05:13:29;1.10;;;1.00;;
17820;SDS011;9035;42.554;23.188;2022-10-19T05:15:56;1.67;;;1.20;;
17820;SDS011;9035;42.554;23.188;2022-10-19T05:18:24;1.50;;;1.17;;
17820;SDS011;9035;42.554;23.188;2022-10-19T05:20:51;1.20;;;1.10;;
17820;SDS011;9035;42.554;23.188;2022-10-19T05:23:27;1.67;;;1.30;;
17820;SDS011;9035;42.554;23.188;2022-10-19T05:25:58;1.63;;;1.20;;
17820;SDS011;9035;42.554;23.188;2022-10-19T05:28:26;1.87;;;1.23;;
17820;SDS011;9035;42.554;23.188;2022-10-19T05:30:53;2.00;;;1.37;;
17820;SDS011;9035;42.554;23.188;2022-10-19T05:33:21;1.83;;;1.00;;
17820;SDS011;9035;42.554;23.188;2022-10-19T05:35:47;1.20;;;1.10;;
17820;SDS011;9035;42.554;23.188;2022-10-19T05:38:14;1.87;;;1.30;;
17820;SDS011;9035;42.554;23.188;2022-10-19T05:40:45;1.40;;;0.93;;
17820;SDS011;9035;42.554;23.188;2022-10-19T05:43:12;1.10;;;1.00;;
17820;SDS011;9035;42.554;23.188;2022-10-19T05:45:39;1.87;;;1.10;;
17820;SDS011;9035;42.554;23.188;2022-10-19T05:48:05;1.53;;;1.30;;
17820;SDS011;9035;42.554;23.188;2022-10-19T05:50:32;2.20;;;1.10;;
17820;SDS011;9035;42.554;23.188;2022-10-19T05:52:59;2.67;;;0.90;;
17820;SDS011;9035;42.554;23.188;2022-10-19T05:55:26;1.50;;;1.10;;
17820;SDS011;9035;42.554;23.188;2022-10-19T05:57:54;1.50;;;1.00;;
17820;SDS011;9035;42.554;23.188;2022-10-19T06:00:21;1.67;;;1.03;;
17820;SDS011;9035;42.554;23.188;2022-10-19T06:02:47;1.17;;;1.07;;
17820;SDS011;9035;42.554;23.188;2022-10-19T06:05:14;1.13;;;1.00;;
17820;SDS011;9035;42.554;23.188;2022-10-19T06:07:41;1.70;;;1.00;;
17820;SDS011;9035;42.554;23.188;2022-10-19T06:10:08;1.53;;;0.90;;
17820;SDS011;9035;42.554;23.188;2022-10-19T06:12:35;2.73;;;0.90;;
17820;SDS011;9035;42.554;23.188;2022-10-19T06:15:04;1.37;;;1.00;;
17820;SDS011;9035;42.554;23.188;2022-10-19T06:17:32;2.03;;;1.80;;
17820;SDS011;9035;42.554;23.188;2022-10-19T06:19:58;1.43;;;1.20;;
17820;SDS011;9035;42.554;23.188;2022-10-19T06:22:25;1.77;;;1.13;;
17820;SDS011;9035;42.554;23.188;2022-10-19T06:24:52;4.13;;;1.93;;
17820;SDS011;9035;42.554;23.188;2022-10-19T06:27:19;1.80;;;1.57;;
17820;SDS011;9035;42.554;23.188;2022-10-19T06:29:46;6.47;;;1.77;;
17820;SDS011;9035;42.554;23.188;2022-10-19T06:32:14;2.73;;;1.80;;
17820;SDS011;9035;42.554;23.188;2022-10-19T06:34:41;3.47;;;2.30;;
17820;SDS011;9035;42.554;23.188;2022-10-19T06:37:07;4.10;;;2.20;;
17820;SDS011;9035;42.554;23.188;2022-10-19T06:39:34;5.20;;;2.40;;
17820;SDS011;9035;42.554;23.188;2022-10-19T06:42:01;3.73;;;2.27;;
17820;SDS011;9035;42.554;23.188;2022-10-19T06:44:28;3.30;;;2.33;;
17820;SDS011;9035;42.554;23.188;2022-10-19T06:46:54;3.20;;;2.37;;
17820;SDS011;9035;42.554;23.188;2022-10-19T06:49:22;4.73;;;3.00;;
17820;SDS011;9035;42.554;23.188;2022-10-19T06:51:49;6.57;;;3.20;;
17820;SDS011;9035;42.554;23.188;2022-10-19T06:54:16;7.33;;;2.70;;
17820;SDS011;9035;42.554;23.188;2022-10-19T06:56:43;5.73;;;3.47;;
17820;SDS011;9035;42.554;23.188;2022-10-19T06:59:09;5.83;;;3.20;;
17820;SDS011;9035;42.554;23.188;2022-10-19T07:01:37;5.00;;;3.63;;
17820;SDS011;9035;42.554;23.188;2022-10-19T07:04:04;6.53;;;3.83;;
17820;SDS011;9035;42.554;23.188;2022-10-19T07:06:32;10.97;;;4.17;;
17820;SDS011;9035;42.554;23.188;2022-10-19T07:08:59;7.07;;;4.20;;
17820;SDS011;9035;42.554;23.188;2022-10-19T07:11:27;7.70;;;3.70;;
17820;SDS011;9035;42.554;23.188;2022-10-19T07:13:54;5.93;;;3.87;;
17820;SDS011;9035;42.554;23.188;2022-10-19T07:16:21;6.70;;;3.80;;
17820;SDS011;9035;42.554;23.188;2022-10-19T07:18:48;8.70;;;4.17;;
17820;SDS011;9035;42.554;23.188;2022-10-19T07:21:15;6.80;;;3.23;;
17820;SDS011;9035;42.554;23.188;2022-10-19T07:23:44;5.90;;;3.40;;
17820;SDS011;9035;42.554;23.188;2022-10-19T07:26:12;4.80;;;3.20;;
17820;SDS011;9035;42.554;23.188;2022-10-19T07:28:42;8.27;;;4.23;;
17820;SDS011;9035;42.554;23.188;2022-10-19T07:31:11;5.93;;;3.87;;
17820;SDS011;9035;42.554;23.188;2022-10-19T07:33:39;4.90;;;3.33;;
17820;SDS011;9035;42.554;23.188;2022-10-19T07:36:07;7.93;;;3.83;;
17820;SDS011;9035;42.554;23.188;2022-10-19T07:38:35;6.43;;;3.67;;
17820;SDS011;9035;42.554;23.188;2022-10-19T07:41:05;6.53;;;3.70;;
17820;SDS011;9035;42.554;23.188;2022-10-19T07:43:33;8.30;;;3.53;;
17820;SDS011;9035;42.554;23.188;2022-10-19T07:46:01;5.57;;;3.80;;
17820;SDS011;9035;42.554;23.188;2022-10-19T07:48:31;7.67;;;4.10;;
17820;SDS011;9035;42.554;23.188;2022-10-19T07:50:59;7.43;;;3.40;;
17820;SDS011;9035;42.554;23.188;2022-10-19T07:53:26;7.37;;;4.23;;
17820;SDS011;9035;42.554;23.188;2022-10-19T07:55:53;6.80;;;3.70;;
17820;SDS011;9035;42.554;23.188;2022-10-19T07:58:21;5.97;;;4.10;;
17820;SDS011;9035;42.554;23.188;2022-10-19T08:00:48;6.53;;;3.63;;
17820;SDS011;9035;42.554;23.188;2022-10-19T08:03:15;7.43;;;3.17;;
17820;SDS011;9035;42.554;23.188;2022-10-19T08:05:41;4.87;;;3.33;;
17820;SDS011;9035;42.554;23.188;2022-10-19T08:08:08;9.83;;;3.87;;
17820;SDS011;9035;42.554;23.188;2022-10-19T08:10:35;6.93;;;3.57;;
17820;SDS011;9035;42.554;23.188;2022-10-19T08:13:02;6.10;;;3.67;;
17820;SDS011;9035;42.554;23.188;2022-10-19T08:15:30;5.90;;;3.90;;
17820;SDS011;9035;42.554;23.188;2022-10-19T08:17:57;5.27;;;3.40;;
17820;SDS011;9035;42.554;23.188;2022-10-19T08:20:25;9.00;;;4.13;;
17820;SDS011;9035;42.554;23.188;2022-10-19T08:22:52;10.97;;;4.13;;
17820;SDS011;9035;42.554;23.188;2022-10-19T08:25:19;5.60;;;3.80;;
17820;SDS011;9035;42.554;23.188;2022-10-19T08:27:45;9.40;;;3.87;;
17820;SDS011;9035;42.554;23.188;2022-10-19T08:30:12;7.37;;;3.33;;
17820;SDS011;9035;42.554;23.188;2022-10-19T08:32:40;8.10;;;3.47;;
17820;SDS011;9035;42.554;23.188;2022-10-19T08:35:07;8.57;;;3.60;;
17820;SDS011;9035;42.554;23.188;2022-10-19T08:37:34;7.13;;;3.70;;
17820;SDS011;9035;42.554;23.188;2022-10-19T08:40:01;6.27;;;3.80;;
17820;SDS011;9035;42.554;23.188;2022-10-19T08:42:28;8.83;;;4.43;;
17820;SDS011;9035;42.554;23.188;2022-10-19T08:45:22;7.20;;;4.47;;
17820;SDS011;9035;42.554;23.188;2022-10-19T08:47:59;11.57;;;5.27;;
17820;SDS011;9035;42.554;23.188;2022-10-19T08:50:38;6.07;;;4.10;;
17820;SDS011;9035;42.554;23.188;2022-10-19T08:53:10;9.73;;;5.23;;
17820;SDS011;9035;42.554;23.188;2022-10-19T08:55:43;6.97;;;4.20;;
17820;SDS011;9035;42.554;23.188;2022-10-19T08:58:29;9.27;;;4.20;;
17820;SDS011;9035;42.554;23.188;2022-10-19T09:01:13;9.67;;;4.80;;
17820;SDS011;9035;42.554;23.188;2022-10-19T09:03:51;9.17;;;4.73;;
17820;SDS011;9035;42.554;23.188;2022-10-19T09:06:22;11.23;;;4.97;;
17820;SDS011;9035;42.554;23.188;2022-10-19T09:08:55;12.30;;;4.73;;
17820;SDS011;9035;42.554;23.188;2022-10-19T09:11:23;12.13;;;5.27;;
17820;SDS011;9035;42.554;23.188;2022-10-19T09:13:55;14.80;;;6.33;;
17820;SDS011;9035;42.554;23.188;2022-10-19T09:16:25;16.20;;;6.27;;
17820;SDS011;9035;42.554;23.188;2022-10-19T09:18:53;13.90;;;6.17;;
17820;SDS011;9035;42.554;23.188;2022-10-19T09:21:21;10.40;;;4.37;;
17820;SDS011;9035;42.554;23.188;2022-10-19T09:23:51;14.30;;;4.57;;
17820;SDS011;9035;42.554;23.188;2022-10-19T09:26:24;9.93;;;5.03;;
17820;SDS011;9035;42.554;23.188;2022-10-19T09:28:54;15.00;;;5.37;;
17820;SDS011;9035;42.554;23.188;2022-10-19T09:31:27;13.67;;;4.77;;
17820;SDS011;9035;42.554;23.188;2022-10-19T09:34:00;11.60;;;4.93;;
17820;SDS011;9035;42.554;23.188;2022-10-19T09:36:31;14.60;;;5.53;;
17820;SDS011;9035;42.554;23.188;2022-10-19T09:39:03;12.00;;;5.63;;
17820;SDS011;9035;42.554;23.188;2022-10-19T09:41:30;17.53;;;5.80;;
17820;SDS011;9035;42.554;23.188;2022-10-19T09:43:57;21.23;;;6.07;;
17820;SDS011;9035;42.554;23.188;2022-10-19T09:46:30;14.80;;;4.83;;
17820;SDS011;9035;42.554;23.188;2022-10-19T09:49:03;15.53;;;5.73;;
17820;SDS011;9035;42.554;23.188;2022-10-19T09:51:43;17.30;;;4.87;;
17820;SDS011;9035;42.554;23.188;2022-10-19T09:54:30;11.70;;;5.10;;
17820;SDS011;9035;42.554;23.188;2022-10-19T09:57:00;10.13;;;4.17;;
17820;SDS011;9035;42.554;23.188;2022-10-19T09:59:28;8.57;;;3.80;;
17820;SDS011;9035;42.554;23.188;2022-10-19T10:02:02;10.03;;;3.53;;
17820;SDS011;9035;42.554;23.188;2022-10-19T10:04:40;5.57;;;3.27;;
17820;SDS011;9035;42.554;23.188;2022-10-19T10:07:12;4.17;;;3.00;;
17820;SDS011;9035;42.554;23.188;2022-10-19T10:09:42;3.93;;;2.90;;
17820;SDS011;9035;42.554;23.188;2022-10-19T10:12:11;3.40;;;2.70;;
17820;SDS011;9035;42.554;23.188;2022-10-19T10:14:41;4.67;;;3.00;;
17820;SDS011;9035;42.554;23.188;2022-10-19T10:17:12;6.23;;;2.90;;
17820;SDS011;9035;42.554;23.188;2022-10-19T10:19:51;3.27;;;2.30;;
17820;SDS011;9035;42.554;23.188;2022-10-19T10:22:29;3.73;;;2.63;;
17820;SDS011;9035;42.554;23.188;2022-10-19T10:24:58;4.90;;;2.90;;
17820;SDS011;9035;42.554;23.188;2022-10-19T10:27:28;3.67;;;2.50;;
17820;SDS011;9035;42.554;23.188;2022-10-19T10:29:57;4.10;;;2.87;;
17820;SDS011;9035;42.554;23.188;2022-10-19T10:32:24;3.30;;;2.50;;
17820;SDS011;9035;42.554;23.188;2022-10-19T10:34:57;3.30;;;2.33;;
17820;SDS011;9035;42.554;23.188;2022-10-19T10:37:27;9.80;;;2.83;;
17820;SDS011;9035;42.554;23.188;2022-10-19T10:40:00;5.63;;;2.80;;
17820;SDS011;9035;42.554;23.188;2022-10-19T10:42:29;3.07;;;2.40;;
17820;SDS011;9035;42.554;23.188;2022-10-19T10:45:01;4.13;;;2.70;;
17820;SDS011;9035;42.554;23.188;2022-10-19T10:47:29;4.77;;;2.70;;
17820;SDS011;9035;42.554;23.188;2022-10-19T10:49:58;4.10;;;2.57;;
17820;SDS011;9035;42.554;23.188;2022-10-19T10:52:29;3.90;;;2.83;;
17820;SDS011;9035;42.554;23.188;2022-10-19T10:54:57;5.77;;;2.67;;
17820;SDS011;9035;42.554;23.188;2022-10-19T10:57:27;20.43;;;3.53;;
17820;SDS011;9035;42.554;23.188;2022-10-19T10:59:59;10.77;;;3.30;;
17820;SDS011;9035;42.554;23.188;2022-10-19T11:02:37;4.83;;;2.60;;
17820;SDS011;9035;42.554;23.188;2022-10-19T11:05:13;2.43;;;2.23;;
17820;SDS011;9035;42.554;23.188;2022-10-19T11:07:45;6.90;;;2.20;;
17820;SDS011;9035;42.554;23.188;2022-10-19T11:10:17;6.80;;;2.47;;
17820;SDS011;9035;42.554;23.188;2022-10-19T11:12:49;8.43;;;2.37;;
17820;SDS011;9035;42.554;23.188;2022-10-19T11:15:22;5.77;;;2.40;;
17820;SDS011;9035;42.554;23.188;2022-10-19T11:17:54;4.87;;;2.50;;
17820;SDS011;9035;42.554;23.188;2022-10-19T11:20:29;2.47;;;2.03;;
17820;SDS011;9035;42.554;23.188;2022-10-19T11:23:01;3.33;;;2.73;;
17820;SDS011;9035;42.554;23.188;2022-10-19T11:25:39;2.73;;;2.27;;
17820;SDS011;9035;42.554;23.188;2022-10-19T11:28:18;3.43;;;2.40;;
17820;SDS011;9035;42.554;23.188;2022-10-19T11:30:56;2.43;;;2.10;;
17820;SDS011;9035;42.554;23.188;2022-10-19T11:33:43;3.13;;;2.37;;
17820;SDS011;9035;42.554;23.188;2022-10-19T11:36:22;4.47;;;2.10;;
17820;SDS011;9035;42.554;23.188;2022-10-19T11:39:05;2.77;;;2.33;;
17820;SDS011;9035;42.554;23.188;2022-10-19T11:41:48;3.17;;;2.67;;
17820;SDS011;9035;42.554;23.188;2022-10-19T11:44:26;2.93;;;2.63;;
17820;SDS011;9035;42.554;23.188;2022-10-19T11:47:13;8.87;;;3.07;;
17820;SDS011;9035;42.554;23.188;2022-10-19T11:49:50;3.53;;;2.42;;
17820;SDS011;9035;42.554;23.188;2022-10-19T11:52:29;3.08;;;2.65;;
17820;SDS011;9035;42.554;23.188;2022-10-19T11:55:05;4.60;;;2.78;;
17820;SDS011;9035;42.554;23.188;2022-10-19T11:57:42;5.13;;;2.45;;
17820;SDS011;9035;42.554;23.188;2022-10-19T12:00:15;2.53;;;2.17;;
17820;SDS011;9035;42.554;23.188;2022-10-19T12:02:52;2.67;;;2.28;;
17820;SDS011;9035;42.554;23.188;2022-10-19T12:05:30;2.53;;;2.15;;
17820;SDS011;9035;42.554;23.188;2022-10-19T12:08:06;3.55;;;2.45;;
17820;SDS011;9035;42.554;23.188;2022-10-19T12:10:46;3.20;;;2.45;;
17820;SDS011;9035;42.554;23.188;2022-10-19T12:13:25;3.45;;;2.28;;
17820;SDS011;9035;42.554;23.188;2022-10-19T12:15:57;3.35;;;2.70;;
17820;SDS011;9035;42.554;23.188;2022-10-19T12:18:28;2.72;;;2.40;;
17820;SDS011;9035;42.554;23.188;2022-10-19T12:21:00;4.45;;;2.42;;
17820;SDS011;9035;42.554;23.188;2022-10-19T12:23:32;2.85;;;2.25;;
17820;SDS011;9035;42.554;23.188;2022-10-19T12:26:02;2.78;;;2.20;;
17820;SDS011;9035;42.554;23.188;2022-10-19T12:28:31;4.95;;;2.53;;
17820;SDS011;9035;42.554;23.188;2022-10-19T12:31:00;4.50;;;2.60;;
17820;SDS011;9035;42.554;23.188;2022-10-19T12:33:30;3.28;;;2.53;;
17820;SDS011;9035;42.554;23.188;2022-10-19T12:36:11;2.40;;;2.20;;
17820;SDS011;9035;42.554;23.188;2022-10-19T12:38:51;2.63;;;2.42;;
17820;SDS011;9035;42.554;23.188;2022-10-19T12:41:27;7.00;;;2.33;;
17820;SDS011;9035;42.554;23.188;2022-10-19T12:44:00;5.32;;;2.17;;
17820;SDS011;9035;42.554;23.188;2022-10-19T12:46:36;5.63;;;2.30;;
17820;SDS011;9035;42.554;23.188;2022-10-19T12:52:11;2.63;;;2.25;;
17820;SDS011;9035;42.554;23.188;2022-10-19T12:54:41;3.20;;;2.55;;
17820;SDS011;9035;42.554;23.188;2022-10-19T12:57:19;5.32;;;2.70;;
17820;SDS011;9035;42.554;23.188;2022-10-19T13:00:02;7.50;;;2.35;;
17820;SDS011;9035;42.554;23.188;2022-10-19T13:02:33;3.33;;;2.20;;
17820;SDS011;9035;42.554;23.188;2022-10-19T13:05:01;3.25;;;2.47;;
17820;SDS011;9035;42.554;23.188;2022-10-19T13:07:30;4.03;;;2.65;;
17820;SDS011;9035;42.554;23.188;2022-10-19T13:10:03;4.57;;;2.33;;
17820;SDS011;9035;42.554;23.188;2022-10-19T13:12:41;5.00;;;2.88;;
17820;SDS011;9035;42.554;23.188;2022-10-19T13:18:14;3.55;;;2.63;;
17820;SDS011;9035;42.554;23.188;2022-10-19T13:21:01;4.35;;;2.50;;
17820;SDS011;9035;42.554;23.188;2022-10-19T13:26:28;3.60;;;2.50;;
17820;SDS011;9035;42.554;23.188;2022-10-19T13:28:58;3.80;;;2.80;;
17820;SDS011;9035;42.554;23.188;2022-10-19T13:31:26;3.88;;;2.85;;
17820;SDS011;9035;42.554;23.188;2022-10-19T13:33:54;2.88;;;2.58;;
17820;SDS011;9035;42.554;23.188;2022-10-19T13:36:22;4.70;;;2.55;;
17820;SDS011;9035;42.554;23.188;2022-10-19T13:39:03;3.92;;;2.65;;
17820;SDS011;9035;42.554;23.188;2022-10-19T13:41:45;4.25;;;2.58;;
17820;SDS011;9035;42.554;23.188;2022-10-19T13:44:17;3.72;;;2.60;;
17820;SDS011;9035;42.554;23.188;2022-10-19T13:46:51;3.97;;;2.60;;
17820;SDS011;9035;42.554;23.188;2022-10-19T13:55:32;2.87;;;2.57;;
17820;SDS011;9035;42.554;23.188;2022-10-19T13:58:26;3.85;;;2.88;;
17820;SDS011;9035;42.554;23.188;2022-10-19T14:01:07;3.87;;;2.80;;
17820;SDS011;9035;42.554;23.188;2022-10-19T14:03:53;5.50;;;3.00;;
17820;SDS011;9035;42.554;23.188;2022-10-19T14:06:30;3.97;;;3.27;;
17820;SDS011;9035;42.554;23.188;2022-10-19T14:12:07;3.77;;;3.17;;
17820;SDS011;9035;42.554;23.188;2022-10-19T14:14:41;6.60;;;3.10;;
17820;SDS011;9035;42.554;23.188;2022-10-19T14:17:12;4.50;;;2.63;;
17820;SDS011;9035;42.554;23.188;2022-10-19T14:19:41;5.17;;;2.63;;
17820;SDS011;9035;42.554;23.188;2022-10-19T14:22:25;5.03;;;2.90;;
17820;SDS011;9035;42.554;23.188;2022-10-19T14:25:02;5.47;;;3.60;;
17820;SDS011;9035;42.554;23.188;2022-10-19T14:27:31;4.60;;;3.30;;
17820;SDS011;9035;42.554;23.188;2022-10-19T14:30:00;4.17;;;3.50;;
17820;SDS011;9035;42.554;23.188;2022-10-19T14:32:27;7.43;;;3.87;;
17820;SDS011;9035;42.554;23.188;2022-10-19T14:34:58;4.23;;;3.07;;
17820;SDS011;9035;42.554;23.188;2022-10-19T14:37:30;11.73;;;4.10;;
17820;SDS011;9035;42.554;23.188;2022-10-19T14:39:58;4.90;;;4.17;;
17820;SDS011;9035;42.554;23.188;2022-10-19T14:42:40;5.37;;;3.90;;
17820;SDS011;9035;42.554;23.188;2022-10-19T14:45:13;3.77;;;3.43;;
17820;SDS011;9035;42.554;23.188;2022-10-19T14:47:51;7.57;;;3.63;;
17820;SDS011;9035;42.554;23.188;2022-10-19T14:50:21;6.90;;;4.60;;
17820;SDS011;9035;42.554;23.188;2022-10-19T14:52:53;7.60;;;4.77;;
17820;SDS011;9035;42.554;23.188;2022-10-19T14:55:23;5.57;;;4.27;;
17820;SDS011;9035;42.554;23.188;2022-10-19T14:57:55;16.33;;;4.17;;
17820;SDS011;9035;42.554;23.188;2022-10-19T15:00:23;6.13;;;3.13;;
17820;SDS011;9035;42.554;23.188;2022-10-19T15:02:52;6.67;;;3.63;;
17820;SDS011;9035;42.554;23.188;2022-10-19T15:05:23;5.17;;;3.60;;
17820;SDS011;9035;42.554;23.188;2022-10-19T15:07:53;6.20;;;3.70;;
17820;SDS011;9035;42.554;23.188;2022-10-19T15:10:21;4.40;;;3.80;;
17820;SDS011;9035;42.554;23.188;2022-10-19T15:12:50;18.03;;;5.07;;
17820;SDS011;9035;42.554;23.188;2022-10-19T15:15:24;11.67;;;4.30;;
17820;SDS011;9035;42.554;23.188;2022-10-19T15:17:53;5.23;;;4.13;;
17820;SDS011;9035;42.554;23.188;2022-10-19T15:20:23;7.60;;;4.00;;
17820;SDS011;9035;42.554;23.188;2022-10-19T15:22:52;8.03;;;3.70;;
17820;SDS011;9035;42.554;23.188;2022-10-19T15:25:24;7.37;;;3.90;;
17820;SDS011;9035;42.554;23.188;2022-10-19T15:27:53;6.90;;;4.37;;
17820;SDS011;9035;42.554;23.188;2022-10-19T15:30:24;4.90;;;3.70;;